Time;durP1;ratioP1;P1;durP2;ratioP2;P2;SDS_P1;SDS_P2;PMS_P1;PMS_P2;Temp;Humidity;BMP_temperature;BMP_pressure;BME280_temperature;BME280_humidity;BME280_pressure;Samples;Min_cycle;Max_cycle;Signal;HPM_P1;HPM_P2
2021/08/04 00:04:31;;;;;;;5.40;3.87;;;;;;;15.26;100.00;98807.84;10501305;28;20210;-77
2021/08/04 00:09:50;;;;;;;3.50;3.30;;;;;;;15.19;100.00;98810.75;10502953;28;20712;-77
2021/08/04 00:15:11;;;;;;;6.73;3.77;;;;;;;15.12;100.00;98812.94;10502535;28;20178;-79
2021/08/04 00:20:30;;;;;;;3.80;3.30;;;;;;;15.20;100.00;98814.31;10503712;28;20202;-75
2021/08/04 00:25:49;;;;;;;5.47;3.40;;;;;;;15.24;100.00;98815.81;10462636;28;20183;-75
2021/08/04 00:31:08;;;;;;;10.23;3.97;;;;;;;15.03;100.00;98812.00;10459711;28;20179;-76
2021/08/04 00:36:27;;;;;;;4.27;3.93;;;;;;;15.06;100.00;98824.97;10461696;28;20187;-77
2021/08/04 00:41:46;;;;;;;3.90;3.60;;;;;;;15.18;100.00;98823.03;10460799;28;20222;-76
2021/08/04 00:47:05;;;;;;;4.60;3.63;;;;;;;15.19;100.00;98821.84;10459963;28;20183;-77
2021/08/04 00:52:23;;;;;;;3.70;3.50;;;;;;;15.27;100.00;98814.91;10474050;28;20183;-77
2021/08/04 00:57:42;;;;;;;4.37;3.97;;;;;;;15.23;100.00;98819.78;10501364;28;20258;-76
2021/08/04 01:03:07;;;;;;;3.30;3.00;;;;;;;15.12;100.00;98817.69;10485232;28;20219;-79
2021/08/04 01:08:33;;;;;;;4.20;3.80;;;;;;;15.05;100.00;98817.88;10500866;28;20202;-76
2021/08/04 01:13:55;;;;;;;4.17;3.70;;;;;;;15.06;100.00;98808.38;10501657;28;20167;-77
2021/08/04 01:19:45;;;;;;;3.90;3.60;;;;;;;14.97;100.00;98819.28;10500277;28;20167;-76
2021/08/04 01:25:13;;;;;;;3.57;3.37;;;;;;;14.95;100.00;98816.16;10464142;28;20199;-76
2021/08/04 01:30:33;;;;;;;3.93;3.50;;;;;;;15.04;100.00;98825.44;10457221;28;20638;-77
2021/08/04 01:35:53;;;;;;;3.87;3.57;;;;;;;15.01;100.00;98825.53;10458449;28;20266;-76
2021/08/04 01:41:14;;;;;;;4.50;4.10;;;;;;;14.90;100.00;98819.47;10459660;28;20686;-76
2021/08/04 01:46:35;;;;;;;6.10;3.90;;;;;;;15.01;100.00;98817.22;10456715;28;20184;-75
2021/08/04 01:51:55;;;;;;;5.37;3.90;;;;;;;15.01;100.00;98811.66;10468278;28;20186;-76
2021/08/04 01:57:14;;;;;;;11.40;4.83;;;;;;;15.03;100.00;98806.44;10499715;28;20692;-76
2021/08/04 02:02:33;;;;;;;12.83;4.50;;;;;;;14.92;100.00;98814.28;10497035;28;20247;-77
2021/08/04 02:08:18;;;;;;;4.87;4.37;;;;;;;14.98;100.00;98804.22;10498067;28;20640;-76
2021/08/04 02:13:52;;;;;;;6.00;5.07;;;;;;;15.08;100.00;98805.94;10498024;28;20183;-77
2021/08/04 02:19:33;;;;;;;4.93;4.47;;;;;;;15.01;100.00;98806.13;10496693;28;20175;-77
2021/08/04 02:25:14;;;;;;;9.73;4.20;;;;;;;15.04;100.00;98805.25;10481629;28;20214;-76
2021/08/04 02:30:35;;;;;;;6.00;4.63;;;;;;;15.15;100.00;98806.50;10497270;28;20174;-75
2021/08/04 02:35:56;;;;;;;6.77;4.20;;;;;;;15.17;100.00;98798.56;10497401;28;20178;-77
2021/08/04 02:41:15;;;;;;;6.50;5.60;;;;;;;15.13;100.00;98799.84;10496356;28;20348;-76
2021/08/04 02:46:34;;;;;;;13.30;6.43;;;;;;;15.12;100.00;98801.06;10495706;28;20210;-77
2021/08/04 02:51:55;;;;;;;9.57;5.60;;;;;;;15.15;100.00;98810.09;10485795;28;20266;-77
2021/08/04 02:57:14;;;;;;;6.60;5.00;;;;;;;15.12;100.00;98807.41;10456507;28;20677;-77
2021/08/04 03:02:34;;;;;;;6.97;5.70;;;;;;;15.01;100.00;98812.44;10454645;28;20199;-76
2021/08/04 03:07:53;;;;;;;6.60;5.97;;;;;;;15.04;100.00;98816.31;10455919;28;20601;-76
2021/08/04 03:13:11;;;;;;;5.90;5.27;;;;;;;15.02;100.00;98819.53;10456052;28;20648;-75
2021/08/04 03:18:30;;;;;;;5.70;5.20;;;;;;;15.09;100.00;98818.59;10454681;28;20183;-79
2021/08/04 03:23:49;;;;;;;8.03;5.47;;;;;;;15.14;100.00;98827.91;10489774;28;20648;-77
2021/08/04 03:29:08;;;;;;;6.50;5.93;;;;;;;15.11;100.00;98838.31;10505680;28;20214;-76
2021/08/04 03:34:27;;;;;;;7.23;6.40;;;;;;;15.08;100.00;98830.88;10503204;28;20170;-77
2021/08/04 03:39:46;;;;;;;8.57;5.73;;;;;;;15.04;100.00;98833.75;10504931;28;20222;-77
2021/08/04 03:45:06;;;;;;;9.50;5.90;;;;;;;14.99;100.00;98833.47;10502207;28;20623;-77
2021/08/04 03:50:26;;;;;;;10.60;6.07;;;;;;;14.98;100.00;98834.69;10501647;28;20175;-77
2021/08/04 03:55:44;;;;;;;8.80;5.50;;;;;;;15.03;100.00;98828.63;10462368;28;20191;-75
2021/08/04 04:01:03;;;;;;;6.10;5.50;;;;;;;15.02;100.00;98835.41;10461900;28;20219;-77
2021/08/04 04:06:22;;;;;;;6.17;5.53;;;;;;;15.09;100.00;98843.53;10461812;28;20199;-77
2021/08/04 04:11:41;;;;;;;11.20;6.40;;;;;;;15.14;100.00;98843.78;10462849;28;20199;-79
2021/08/04 04:17:00;;;;;;;5.50;5.00;;;;;;;15.15;100.00;98843.34;10460190;28;20163;-76
2021/08/04 04:22:19;;;;;;;8.37;6.63;;;;;;;15.11;100.00;98843.84;10462228;28;20207;-76
2021/08/04 04:27:40;;;;;;;6.13;5.53;;;;;;;15.06;100.00;98841.59;10462097;28;20179;-77
2021/08/04 04:32:59;;;;;;;9.10;6.17;;;;;;;15.16;100.00;98850.44;10460549;28;20192;-76
2021/08/04 04:38:18;;;;;;;6.07;5.50;;;;;;;15.15;100.00;98851.66;10461397;28;20219;-76
2021/08/04 04:43:38;;;;;;;5.97;5.33;;;;;;;15.14;100.00;98850.09;10460036;28;20627;-75
2021/08/04 04:48:57;;;;;;;7.23;5.80;;;;;;;15.25;100.00;98855.38;10461571;28;20179;-77
2021/08/04 04:54:16;;;;;;;7.23;6.63;;;;;;;15.27;100.00;98848.19;10501439;28;20174;-78
2021/08/04 04:59:35;;;;;;;6.20;5.40;;;;;;;15.33;100.00;98857.53;10502302;28;20186;-75
2021/08/04 05:04:56;;;;;;;6.13;5.40;;;;;;;15.44;100.00;98849.72;10500174;28;20289;-79
2021/08/04 05:10:15;;;;;;;6.07;5.47;;;;;;;15.49;100.00;98854.75;10501924;28;20187;-77
2021/08/04 05:15:34;;;;;;;6.73;6.13;;;;;;;15.49;100.00;98859.47;10500268;28;20568;-76
2021/08/04 05:20:53;;;;;;;7.23;5.40;;;;;;;15.51;100.00;98857.81;10483377;28;20195;-76
2021/08/04 05:26:12;;;;;;;6.60;6.00;;;;;;;15.56;100.00;98865.63;10459673;28;20191;-77
2021/08/04 05:31:31;;;;;;;8.40;5.10;;;;;;;15.62;100.00;98861.09;10457469;28;20633;-75
2021/08/04 05:36:50;;;;;;;7.93;5.20;;;;;;;15.70;100.00;98862.47;10459161;28;20532;-76
2021/08/04 05:42:09;;;;;;;6.83;5.50;;;;;;;15.84;100.00;98864.84;10470363;28;20223;-76
2021/08/04 05:47:28;;;;;;;6.83;5.43;;;;;;;15.90;100.00;98865.06;10488018;28;20269;-76
2021/08/04 05:52:47;;;;;;;4.90;4.53;;;;;;;15.94;100.00;98863.75;10458712;28;20183;-75
2021/08/04 05:58:06;;;;;;;6.13;5.73;;;;;;;16.12;100.00;98858.47;10458688;28;20646;-76
2021/08/04 06:03:25;;;;;;;6.13;5.53;;;;;;;16.18;100.00;98856.72;10455704;28;20211;-76
2021/08/04 06:08:44;;;;;;;5.07;4.67;;;;;;;16.24;100.00;98866.84;10458099;28;20531;-78
2021/08/04 06:14:03;;;;;;;4.90;4.50;;;;;;;16.21;100.00;98873.25;10457757;28;20179;-78
2021/08/04 06:19:22;;;;;;;6.60;5.00;;;;;;;16.44;100.00;98875.00;10486027;28;20218;-78
2021/08/04 06:24:41;;;;;;;5.50;5.00;;;;;;;16.55;100.00;98881.00;10467205;28;20214;-77
2021/08/04 06:30:00;;;;;;;5.50;4.80;;;;;;;16.46;100.00;98880.88;10457028;28;20175;-78
2021/08/04 06:35:19;;;;;;;6.17;5.57;;;;;;;16.58;100.00;98874.53;10457111;28;20179;-77
2021/08/04 06:40:38;;;;;;;5.30;4.90;;;;;;;16.74;100.00;98878.00;10456464;28;20227;-77
2021/08/04 06:45:57;;;;;;;4.90;4.37;;;;;;;17.16;100.00;98888.50;10455499;28;20183;-80
2021/08/04 06:51:16;;;;;;;7.63;4.47;;;;;;;17.08;100.00;98887.19;10455628;28;20179;-77
2021/08/04 06:56:35;;;;;;;5.60;5.10;;;;;;;17.12;100.00;98889.84;10480469;28;20187;-77
2021/08/04 07:01:54;;;;;;;5.70;5.30;;;;;;;17.24;100.00;98884.28;10454678;28;20231;-76
2021/08/04 07:07:18;;;;;;;8.10;5.60;;;;;;;17.22;100.00;98892.28;10456073;28;20191;-76
2021/08/04 07:12:37;;;;;;;7.03;5.90;;;;;;;17.47;100.00;98892.25;10455962;28;20175;-77
2021/08/04 07:17:56;;;;;;;6.87;6.17;;;;;;;17.87;100.00;98893.22;10454857;28;20183;-78
2021/08/04 07:23:15;;;;;;;6.33;5.80;;;;;;;17.76;100.00;98898.41;10467669;28;20205;-77
2021/08/04 07:28:34;;;;;;;6.63;6.13;;;;;;;18.04;98.12;98892.59;10497169;28;20182;-78
2021/08/04 07:33:53;;;;;;;6.67;6.07;;;;;;;18.04;96.65;98894.59;10495997;28;20170;-77
2021/08/04 07:39:12;;;;;;;7.50;6.90;;;;;;;17.84;97.20;98896.91;10496628;28;20618;-78
2021/08/04 07:44:31;;;;;;;7.90;7.20;;;;;;;17.63;100.00;98895.66;10496420;28;20206;-77
2021/08/04 07:49:50;;;;;;;7.43;6.83;;;;;;;17.52;100.00;98890.91;10495491;28;20167;-77
2021/08/04 07:55:13;;;;;;;7.10;6.50;;;;;;;17.43;100.00;98890.81;10480039;28;20179;-79
2021/08/04 08:00:32;;;;;;;7.33;6.73;;;;;;;17.98;100.00;98897.16;10495191;28;20179;-76
2021/08/04 08:05:50;;;;;;;10.47;6.07;;;;;;;18.41;93.09;98895.16;10496470;28;20199;-77
2021/08/04 08:11:09;;;;;;;7.20;6.60;;;;;;;18.48;90.47;98883.78;10504118;28;20641;-77
2021/08/04 08:16:29;;;;;;;6.53;6.13;;;;;;;18.93;92.06;98883.97;10502765;28;20249;-79
2021/08/04 08:21:48;;;;;;;7.13;6.63;;;;;;;19.65;84.88;98875.75;10501707;28;20202;-81
2021/08/04 08:27:06;;;;;;;7.40;6.80;;;;;;;20.24;82.62;98878.69;10461226;28;20195;-77
2021/08/04 08:32:26;;;;;;;8.23;7.53;;;;;;;20.29;81.95;98870.47;10460648;28;20183;-78
2021/08/04 08:37:48;;;;;;;8.90;8.10;;;;;;;19.88;82.01;98887.09;10461606;28;20175;-77
2021/08/04 08:43:07;;;;;;;8.30;7.63;;;;;;;18.85;82.58;98888.25;10461165;28;20215;-78
2021/08/04 08:48:27;;;;;;;11.13;9.20;;;;;;;18.63;86.23;98884.78;10459973;28;20183;-78
2021/08/04 08:53:48;;;;;;;9.60;8.70;;;;;;;18.70;87.69;98878.91;10461250;28;20175;-79
2021/08/04 08:59:07;;;;;;;10.10;9.10;;;;;;;18.38;90.46;98880.59;10460997;28;20192;-78
2021/08/04 09:04:25;;;;;;;9.90;9.00;;;;;;;18.23;91.98;98876.81;10458965;28;20211;-79
2021/08/04 09:09:44;;;;;;;9.80;8.67;;;;;;;18.47;92.31;98865.50;10460580;28;20181;-77
2021/08/04 09:15:04;;;;;;;11.53;10.20;;;;;;;19.13;85.07;98878.78;10458736;28;20183;-77
2021/08/04 09:20:27;;;;;;;11.33;8.40;;;;;;;19.79;84.98;98875.16;10459241;28;20250;-78
2021/08/04 09:26:12;;;;;;;8.53;7.73;;;;;;;21.00;74.45;98857.50;10460419;28;20187;-79
2021/08/04 09:31:40;;;;;;;8.67;7.97;;;;;;;21.32;71.13;98854.66;10467915;28;20191;-78
2021/08/04 09:37:12;;;;;;;8.00;7.40;;;;;;;22.13;69.79;98842.81;10500840;28;20231;-78
2021/08/04 09:42:46;;;;;;;8.90;8.07;;;;;;;21.55;70.76;98853.91;10498689;28;20889;-78
2021/08/04 09:48:08;;;;;;;8.00;7.30;;;;;;;22.27;72.31;98842.81;10498268;28;20648;-81
2021/08/04 09:53:29;;;;;;;8.00;7.27;;;;;;;22.44;64.27;98835.50;10499299;28;20179;-79
2021/08/04 09:58:53;;;;;;;7.27;6.77;;;;;;;22.04;64.59;98840.88;10498941;28;20183;-78
2021/08/04 10:04:14;;;;;;;8.50;7.70;;;;;;;21.73;64.36;98843.31;10466828;28;20242;-80
2021/08/04 10:09:35;;;;;;;7.80;7.20;;;;;;;22.27;64.15;98836.44;10459254;28;20183;-79
2021/08/04 10:14:54;;;;;;;7.73;7.13;;;;;;;22.00;67.95;98829.09;10464377;28;20171;-79
2021/08/04 10:20:14;;;;;;;7.60;7.00;;;;;;;22.42;66.19;98824.00;10497774;28;20588;-79
2021/08/04 10:25:34;;;;;;;6.90;6.30;;;;;;;23.43;61.10;98824.50;10497145;28;20206;-78
2021/08/04 10:30:54;;;;;;;7.00;6.30;;;;;;;24.04;60.81;98830.84;10463863;28;20217;-78
2021/08/04 10:36:16;;;;;;;7.10;6.60;;;;;;;22.62;62.00;98821.25;10456885;28;20175;-76
2021/08/04 10:41:36;;;;;;;6.57;6.00;;;;;;;22.34;62.83;98814.44;10455187;28;20230;-77
2021/08/04 10:46:55;;;;;;;6.87;6.00;;;;;;;22.20;63.92;98808.78;10502990;28;20186;-76
2021/08/04 10:52:14;;;;;;;6.77;6.27;;;;;;;21.81;66.82;98813.69;10456272;28;20621;-78
2021/08/04 10:57:54;;;;;;;7.00;6.60;;;;;;;22.18;64.30;98800.09;10457182;28;20171;-76
2021/08/04 11:03:41;;;;;;;5.70;5.20;;;;;;;23.62;62.45;98805.34;10491376;28;20211;-77
2021/08/04 11:09:12;;;;;;;6.37;5.90;;;;;;;23.93;63.62;98814.66;10455418;28;20652;-78
2021/08/04 11:14:49;;;;;;;5.23;4.93;;;;;;;24.37;58.93;98801.03;10455991;28;20247;-77
2021/08/04 11:20:10;;;;;;;4.87;4.57;;;;;;;23.95;60.29;98774.84;10454899;28;20179;-77
2021/08/04 11:25:41;;;;;;;5.07;4.63;;;;;;;23.00;60.72;98790.97;10455390;28;20634;-77
2021/08/04 11:31:09;;;;;;;5.03;4.63;;;;;;;22.18;62.18;98778.47;10454686;28;20172;-80
2021/08/04 11:36:30;;;;;;;4.87;4.47;;;;;;;21.06;67.21;98789.22;10497169;28;20175;-78
2021/08/04 11:41:50;;;;;;;4.40;4.10;;;;;;;20.15;74.84;98787.31;10496232;28;20218;-79
2021/08/04 11:47:10;;;;;;;5.27;4.97;;;;;;;19.11;84.23;98800.38;10504011;28;20170;-78
2021/08/04 11:52:30;;;;;;;5.97;5.47;;;;;;;18.81;86.96;98801.25;10505130;28;20517;-79
2021/08/04 11:57:56;;;;;;;4.90;4.60;;;;;;;19.00;87.96;98800.03;10504638;28;20182;-78
2021/08/04 12:03:19;;;;;;;4.67;4.30;;;;;;;19.27;86.61;98805.69;10483731;28;20218;-76
2021/08/04 12:08:38;;;;;;;4.80;4.50;;;;;;;19.51;83.06;98799.00;10462874;28;20180;-76
2021/08/04 12:14:06;;;;;;;4.53;4.23;;;;;;;19.69;82.86;98790.63;10462634;28;20176;-76
2021/08/04 12:19:33;;;;;;;4.20;3.80;;;;;;;19.89;79.73;98792.94;10461312;28;20176;-78
2021/08/04 12:24:55;;;;;;;3.90;3.30;;;;;;;20.11;78.83;98783.91;10460674;28;20568;-78
2021/08/04 12:30:26;;;;;;;5.27;3.30;;;;;;;20.18;75.45;98791.97;10459722;28;20183;-76
2021/08/04 12:36:24;;;;;;;3.80;3.60;;;;;;;20.05;82.72;98787.81;10499800;28;20194;-77
2021/08/04 12:41:30;;;;;;;4.37;3.97;;;;;;;20.59;81.90;98791.19;10502218;28;20576;-77
2021/08/04 12:46:49;;;;;;;3.70;3.40;;;;;;;21.21;81.67;98792.09;10500556;28;20258;-78
2021/08/04 12:52:09;;;;;;;2.60;2.40;;;;;;;21.18;68.90;98787.44;10501209;28;20170;-78
2021/08/04 12:57:28;;;;;;;4.40;3.50;;;;;;;20.91;68.67;98782.03;10501035;28;20258;-77
2021/08/04 13:02:49;;;;;;;3.40;3.20;;;;;;;21.09;69.44;98770.72;10485732;28;20215;-76
2021/08/04 13:08:08;;;;;;;3.70;3.50;;;;;;;21.02;69.69;98776.66;10460574;28;20183;-77
2021/08/04 13:13:27;;;;;;;4.00;3.70;;;;;;;21.08;70.10;98769.94;10459218;28;20562;-77
2021/08/04 13:18:47;;;;;;;4.87;3.67;;;;;;;21.60;68.33;98755.28;10459203;28;20183;-77
2021/08/04 13:24:26;;;;;;;4.10;3.70;;;;;;;22.14;66.38;98752.66;10459519;28;20285;-79
2021/08/04 13:29:45;;;;;;;4.37;4.07;;;;;;;22.11;64.46;98758.47;10478883;28;20637;-77
2021/08/04 13:35:05;;;;;;;3.53;3.33;;;;;;;21.94;65.51;98754.59;10476262;28;20183;-78
2021/08/04 13:40:24;;;;;;;4.73;4.20;;;;;;;21.20;68.45;98754.16;10458804;28;20227;-77
2021/08/04 13:45:43;;;;;;;3.73;3.43;;;;;;;21.56;68.62;98759.50;10457377;28;20597;-77
2021/08/04 13:51:03;;;;;;;3.43;3.23;;;;;;;21.67;68.25;98762.50;10458912;28;20277;-76
2021/08/04 13:56:22;;;;;;;3.60;3.40;;;;;;;21.28;69.42;98764.50;10458756;28;20171;-77
2021/08/04 14:01:41;;;;;;;4.60;4.30;;;;;;;21.48;72.68;98759.06;10461567;28;20202;-76
2021/08/04 14:07:00;;;;;;;3.70;3.50;;;;;;;21.86;68.01;98742.22;10485418;28;20645;-76
2021/08/04 14:12:19;;;;;;;3.17;2.63;;;;;;;22.07;62.73;98755.09;10458009;28;20205;-77
2021/08/04 14:17:38;;;;;;;3.40;2.90;;;;;;;22.25;62.87;98754.88;10475276;28;20179;-77
2021/08/04 14:22:59;;;;;;;3.00;2.80;;;;;;;22.06;62.64;98748.69;10484041;28;20218;-78
2021/08/04 14:28:17;;;;;;;3.13;2.93;;;;;;;21.97;63.27;98748.03;10498789;28;20239;-78
2021/08/04 14:33:36;;;;;;;3.53;3.33;;;;;;;21.61;65.94;98747.63;10496564;28;20179;-77
2021/08/04 14:38:55;;;;;;;2.93;2.73;;;;;;;21.28;63.53;98749.75;10470679;28;20255;-78
2021/08/04 14:44:15;;;;;;;3.30;3.10;;;;;;;21.23;66.26;98750.44;10455577;28;20206;-78
2021/08/04 14:49:35;;;;;;;3.07;2.87;;;;;;;21.47;66.48;98739.97;10454682;28;20195;-77
2021/08/04 14:54:54;;;;;;;4.63;3.37;;;;;;;21.67;65.49;98734.50;10489955;28;20179;-78
2021/08/04 15:00:13;;;;;;;5.80;3.10;;;;;;;21.62;64.80;98723.97;10495492;28;20202;-77
2021/08/04 15:05:33;;;;;;;2.80;2.70;;;;;;;21.67;64.75;98733.25;10486558;28;20584;-78
2021/08/04 15:10:57;;;;;;;4.10;3.07;;;;;;;21.73;67.01;98725.72;10455306;28;20179;-78
2021/08/04 15:16:16;;;;;;;3.00;2.80;;;;;;;21.84;65.88;98725.91;10453961;28;20179;-78
2021/08/04 15:21:35;;;;;;;4.47;3.23;;;;;;;21.88;66.44;98726.50;10455900;28;20207;-78
2021/08/04 15:26:54;;;;;;;2.77;2.57;;;;;;;21.65;66.85;98721.00;10455663;28;20171;-79
2021/08/04 15:32:13;;;;;;;2.77;2.57;;;;;;;21.67;66.16;98720.50;10454507;28;20257;-79
2021/08/04 15:37:32;;;;;;;3.03;2.83;;;;;;;21.71;66.46;98722.66;10480924;28;20551;-79
2021/08/04 15:42:52;;;;;;;2.63;2.43;;;;;;;21.83;67.10;98732.00;10496713;28;20301;-80
2021/08/04 15:48:11;;;;;;;4.13;2.57;;;;;;;21.85;69.10;98721.06;10494745;28;20199;-79
2021/08/04 15:53:30;;;;;;;3.20;2.50;;;;;;;21.90;69.67;98717.63;10496798;28;20175;-78
2021/08/04 15:58:49;;;;;;;2.50;2.40;;;;;;;21.86;69.33;98712.22;10496848;28;20250;-78
2021/08/04 16:04:08;;;;;;;2.77;2.57;;;;;;;21.89;69.59;98718.88;10493821;28;20203;-78
2021/08/04 16:09:27;;;;;;;3.10;2.80;;;;;;;21.79;68.16;98709.81;10455199;28;20266;-78
2021/08/04 16:14:46;;;;;;;2.70;2.50;;;;;;;21.79;68.12;98711.81;10454905;28;20537;-79
2021/08/04 16:20:09;;;;;;;3.70;3.40;;;;;;;21.57;69.87;98710.63;10454074;28;20175;-78
2021/08/04 16:25:29;;;;;;;3.00;2.73;;;;;;;21.36;71.01;98706.16;10454058;28;20215;-78
2021/08/04 16:30:49;;;;;;;4.37;3.53;;;;;;;21.30;74.01;98706.03;10459224;28;20578;-78
2021/08/04 16:36:08;;;;;;;5.77;5.30;;;;;;;21.23;76.12;98705.66;10503289;28;20558;-78
2021/08/04 16:41:27;;;;;;;5.00;4.57;;;;;;;21.00;80.37;98701.63;10502503;28;20698;-78
2021/08/04 16:46:46;;;;;;;7.10;4.90;;;;;;;20.72;81.32;98698.72;10501824;28;20179;-78
2021/08/04 16:52:05;;;;;;;4.40;4.10;;;;;;;20.56;80.86;98693.50;10473654;28;20187;-78
2021/08/04 16:57:28;;;;;;;4.80;4.50;;;;;;;20.21;82.73;98696.03;10474070;28;20186;-77
2021/08/04 17:02:48;;;;;;;4.87;4.57;;;;;;;20.15;83.10;98683.97;10500674;28;20294;-79
2021/08/04 17:08:08;;;;;;;5.20;4.90;;;;;;;20.17;83.36;98678.69;10502229;28;20171;-78
2021/08/04 17:13:27;;;;;;;5.10;4.70;;;;;;;20.06;83.85;98684.00;10501837;28;20182;-78
2021/08/04 17:18:46;;;;;;;5.40;4.70;;;;;;;20.10;83.61;98672.66;10500463;28;20183;-79
2021/08/04 17:24:05;;;;;;;5.37;4.97;;;;;;;20.04;84.79;98674.56;10501202;28;20206;-78
2021/08/04 17:29:27;;;;;;;4.60;4.30;;;;;;;19.89;85.50;98668.06;10485932;28;20183;-78
2021/08/04 17:34:46;;;;;;;4.90;4.50;;;;;;;19.80;86.29;98664.53;10499813;28;20525;-78
2021/08/04 17:40:06;;;;;;;6.73;5.23;;;;;;;19.79;87.21;98663.00;10499723;28;20226;-78
2021/08/04 17:45:25;;;;;;;4.90;4.40;;;;;;;19.62;87.57;98670.19;10498840;28;20250;-79
2021/08/04 17:50:44;;;;;;;5.10;4.73;;;;;;;19.59;87.98;98665.53;10500312;28;20178;-79
2021/08/04 17:56:03;;;;;;;4.77;4.37;;;;;;;19.57;88.28;98663.22;10498441;28;20227;-77
2021/08/04 18:01:22;;;;;;;5.03;4.60;;;;;;;19.53;88.41;98661.84;10464595;28;20219;-79
2021/08/04 18:06:41;;;;;;;4.80;4.50;;;;;;;19.50;88.80;98662.75;10463714;28;20183;-77
2021/08/04 18:12:01;;;;;;;4.67;4.37;;;;;;;19.43;88.77;98669.44;10458217;28;20175;-77
2021/08/04 18:17:20;;;;;;;4.90;4.40;;;;;;;19.33;89.44;98664.34;10456775;28;20163;-77
2021/08/04 18:22:40;;;;;;;4.57;4.27;;;;;;;19.23;89.54;98666.38;10457524;28;20214;-77
2021/08/04 18:27:58;;;;;;;4.20;3.90;;;;;;;19.17;90.73;98672.28;10457396;28;20179;-78
2021/08/04 18:33:17;;;;;;;4.40;4.03;;;;;;;19.11;91.48;98671.34;10455999;28;20175;-77
2021/08/04 18:38:36;;;;;;;4.60;4.30;;;;;;;19.06;91.76;98674.72;10497762;28;20222;-77
2021/08/04 18:43:55;;;;;;;4.70;4.33;;;;;;;19.04;91.94;98683.56;10497872;28;20198;-78
2021/08/04 18:49:14;;;;;;;4.77;4.23;;;;;;;18.98;91.75;98682.59;10497015;28;20206;-78
2021/08/04 18:54:34;;;;;;;3.93;3.63;;;;;;;18.94;90.82;98682.00;10498202;28;20182;-77
2021/08/04 18:59:52;;;;;;;4.30;4.00;;;;;;;18.87;92.03;98676.75;10497924;28;20191;-78
2021/08/04 19:05:11;;;;;;;4.77;4.37;;;;;;;18.69;92.83;98675.97;10478355;28;20596;-77
2021/08/04 19:10:33;;;;;;;4.03;3.73;;;;;;;18.66;93.28;98688.78;10456363;28;20179;-79
2021/08/04 19:15:52;;;;;;;5.17;4.67;;;;;;;18.66;95.08;98705.50;10478437;28;20600;-77
2021/08/04 19:21:11;;;;;;;4.70;4.40;;;;;;;18.63;97.96;98708.44;10497406;28;20198;-78
2021/08/04 19:26:30;;;;;;;5.20;4.80;;;;;;;18.39;99.11;98695.56;10468110;28;20184;-77
2021/08/04 19:31:49;;;;;;;5.33;5.03;;;;;;;18.32;99.92;98688.25;10453577;28;20630;-78
2021/08/04 19:37:08;;;;;;;4.93;4.63;;;;;;;18.33;99.61;98691.81;10489291;28;20194;-77
2021/08/04 19:42:27;;;;;;;5.00;4.60;;;;;;;18.34;98.30;98687.78;10496334;28;20611;-78
2021/08/04 19:47:49;;;;;;;4.57;4.17;;;;;;;18.28;98.62;98689.63;10456498;28;20183;-78
2021/08/04 19:53:08;;;;;;;4.50;4.20;;;;;;;18.25;97.39;98688.53;10455257;28;20247;-77
2021/08/04 19:58:27;;;;;;;5.20;4.50;;;;;;;18.27;97.71;98686.09;10496555;28;20195;-78
2021/08/04 20:03:46;;;;;;;4.43;4.13;;;;;;;18.10;99.47;98695.88;10492453;28;20237;-78
2021/08/04 20:09:05;;;;;;;6.27;5.07;;;;;;;18.02;99.93;98691.84;10462920;28;20254;-79
2021/08/04 20:14:24;;;;;;;5.93;5.33;;;;;;;18.04;100.00;98685.81;10472368;28;20253;-78
2021/08/04 20:19:43;;;;;;;5.70;5.27;;;;;;;17.86;100.00;98691.28;10502704;28;20167;-78
2021/08/04 20:25:03;;;;;;;5.20;4.70;;;;;;;17.78;100.00;98690.00;10487956;28;20219;-77
2021/08/04 20:30:22;;;;;;;6.20;5.60;;;;;;;17.75;100.00;98682.59;10460141;28;20188;-79
2021/08/04 20:35:42;;;;;;;5.30;4.90;;;;;;;17.82;100.00;98687.88;10462079;28;20254;-78
2021/08/04 20:41:01;;;;;;;4.67;4.37;;;;;;;17.76;100.00;98692.50;10461262;28;20681;-78
2021/08/04 20:46:19;;;;;;;5.17;4.77;;;;;;;17.71;100.00;98681.94;10484950;28;20183;-78
2021/08/04 20:51:38;;;;;;;5.20;4.90;;;;;;;17.56;100.00;98682.97;10502700;28;20178;-78
2021/08/04 20:56:57;;;;;;;5.00;4.70;;;;;;;17.56;100.00;98680.94;10472043;28;20179;-77
2021/08/04 21:02:19;;;;;;;11.33;7.53;;;;;;;17.46;100.00;98679.31;10459308;28;20215;-79
2021/08/04 21:07:38;;;;;;;6.07;5.20;;;;;;;17.46;100.00;98684.88;10496421;28;20182;-79
2021/08/04 21:12:57;;;;;;;4.77;4.47;;;;;;;17.48;100.00;98687.22;10501881;28;20202;-78
2021/08/04 21:18:16;;;;;;;6.90;6.20;;;;;;;17.52;100.00;98680.31;10458983;28;20183;-77
2021/08/04 21:23:35;;;;;;;5.47;4.97;;;;;;;17.55;100.00;98684.94;10460960;28;20681;-79
2021/08/04 21:28:54;;;;;;;34.90;24.13;;;;;;;17.51;100.00;98689.88;10501319;28;20178;-78
2021/08/04 21:34:13;;;;;;;8.03;6.13;;;;;;;17.50;100.00;98681.97;10493059;28;20187;-78
2021/08/04 21:39:32;;;;;;;16.33;10.53;;;;;;;17.56;100.00;98678.16;10473137;28;20274;-77
2021/08/04 21:44:51;;;;;;;12.70;11.40;;;;;;;17.47;100.00;98682.91;10500226;28;20206;-77
2021/08/04 21:50:10;;;;;;;7.30;6.20;;;;;;;17.44;100.00;98687.38;10482078;28;20215;-77
2021/08/04 21:55:30;;;;;;;5.83;5.33;;;;;;;17.49;100.00;98689.56;10459034;28;20187;-78
2021/08/04 22:00:49;;;;;;;5.40;4.90;;;;;;;17.26;100.00;98692.78;10479995;28;20550;-77
2021/08/04 22:06:08;;;;;;;6.83;4.93;;;;;;;17.27;100.00;98694.34;10499174;28;20214;-76
2021/08/04 22:11:27;;;;;;;7.07;5.50;;;;;;;17.23;100.00;98698.47;10471238;28;20179;-76
2021/08/04 22:16:46;;;;;;;14.77;9.67;;;;;;;17.26;100.00;98692.78;10455911;28;20268;-79
2021/08/04 22:22:05;;;;;;;17.30;8.40;;;;;;;17.03;100.00;98684.88;10490371;28;20206;-77
2021/08/04 22:27:24;;;;;;;6.67;6.07;;;;;;;17.11;100.00;98694.53;10497697;28;20175;-77
2021/08/04 22:32:43;;;;;;;11.17;6.03;;;;;;;17.09;100.00;98685.84;10459097;28;20184;-78
2021/08/04 22:38:07;;;;;;;11.00;5.60;;;;;;;17.03;100.00;98687.66;10457167;28;20187;-78
2021/08/04 22:43:26;;;;;;;8.63;5.80;;;;;;;17.00;100.00;98685.78;10456934;28;20290;-78
2021/08/04 22:48:45;;;;;;;11.97;5.43;;;;;;;16.87;100.00;98684.28;10460221;28;20178;-77
2021/08/04 22:54:04;;;;;;;9.63;5.33;;;;;;;16.81;100.00;98686.84;10498218;28;20175;-77
2021/08/04 22:59:23;;;;;;;8.70;4.83;;;;;;;16.89;100.00;98673.50;10487748;28;20199;-78
2021/08/04 23:04:43;;;;;;;7.77;6.93;;;;;;;16.89;100.00;98671.47;10454709;28;20211;-76
2021/08/04 23:10:03;;;;;;;8.20;6.30;;;;;;;17.06;100.00;98672.84;10470483;28;20636;-77
2021/08/04 23:15:22;;;;;;;8.57;5.60;;;;;;;16.94;100.00;98668.13;10496314;28;20562;-78
2021/08/04 23:20:41;;;;;;;6.30;5.80;;;;;;;16.95;100.00;98678.03;10476144;28;20195;-77
2021/08/04 23:26:01;;;;;;;6.60;5.57;;;;;;;16.95;100.00;98678.03;10455441;28;20215;-77
2021/08/04 23:31:21;;;;;;;6.30;5.80;;;;;;;16.88;100.00;98678.25;10462819;28;20186;-77
2021/08/04 23:36:40;;;;;;;8.10;6.20;;;;;;;17.02;100.00;98675.00;10496270;28;20624;-78
2021/08/04 23:41:59;;;;;;;7.40;6.03;;;;;;;16.98;100.00;98668.78;10474138;28;20227;-77
2021/08/04 23:47:18;;;;;;;7.23;6.13;;;;;;;16.86;100.00;98658.50;10462555;28;20187;-79
2021/08/04 23:52:38;;;;;;;6.33;5.83;;;;;;;16.77;100.00;98655.66;10499008;28;20191;-77
2021/08/04 23:57:57;;;;;;;7.30;6.37;;;;;;;16.91;100.00;98660.69;10504797;28;20218;-79
